Time;durP1;ratioP1;P1;durP2;ratioP2;P2;SDS_P1;SDS_P2;PMS_P1;PMS_P2;Temp;Humidity;BMP_temperature;BMP_pressure;BME280_temperature;BME280_humidity;BME280_pressure;Samples;Min_cycle;Max_cycle;Signal;HPM_P1;HPM_P2
2022/09/29 00:00:55;;;;;;;13.10;11.57;;;8.20;99.90;;;;;;5073326;28;20232;-55
2022/09/29 00:03:23;;;;;;;12.97;11.60;;;8.20;99.90;;;;;;5069542;28;20587;-55
2022/09/29 00:05:55;;;;;;;13.00;10.93;;;8.10;99.90;;;;;;5071681;28;20711;-55
2022/09/29 00:08:24;;;;;;;12.33;11.03;;;8.10;99.90;;;;;;5073860;28;20240;-54
2022/09/29 00:10:53;;;;;;;13.10;10.57;;;8.10;99.90;;;;;;5078992;28;20219;-55
2022/09/29 00:13:21;;;;;;;13.20;11.40;;;8.00;99.90;;;;;;5063660;28;20224;-55
2022/09/29 00:15:56;;;;;;;12.00;10.70;;;8.00;99.90;;;;;;5074155;28;20566;-55
2022/09/29 00:18:24;;;;;;;13.80;11.23;;;8.00;99.90;;;;;;5073175;28;20227;-54
2022/09/29 00:21:04;;;;;;;12.77;11.30;;;7.90;99.90;;;;;;5073268;28;20232;-54
2022/09/29 00:23:34;;;;;;;11.60;10.40;;;7.90;99.90;;;;;;5063211;28;20285;-54
2022/09/29 00:26:04;;;;;;;12.87;10.83;;;7.90;99.90;;;;;;5064837;28;20729;-55
2022/09/29 00:28:34;;;;;;;11.87;10.57;;;7.90;99.90;;;;;;5073258;28;20227;-54
2022/09/29 00:31:04;;;;;;;13.30;11.27;;;7.90;99.90;;;;;;5072878;28;20247;-54
2022/09/29 00:33:33;;;;;;;13.73;11.47;;;7.80;99.90;;;;;;5064979;28;20240;-55
2022/09/29 00:36:05;;;;;;;12.70;11.13;;;7.80;99.90;;;;;;5065690;28;20238;-55
2022/09/29 00:38:34;;;;;;;14.27;11.97;;;7.90;99.90;;;;;;5072714;28;20280;-54
2022/09/29 00:41:02;;;;;;;13.47;10.80;;;7.90;99.90;;;;;;5072713;28;20235;-55
2022/09/29 00:43:53;;;;;;;12.93;11.23;;;7.80;99.90;;;;;;5063348;28;20622;-55
2022/09/29 00:46:28;;;;;;;12.67;9.63;;;7.80;99.90;;;;;;5072580;28;20557;-55
2022/09/29 00:49:02;;;;;;;12.57;10.77;;;7.80;99.90;;;;;;5072802;28;20223;-54
2022/09/29 00:51:33;;;;;;;12.53;10.83;;;7.80;99.90;;;;;;5067403;28;20694;-54
2022/09/29 00:54:02;;;;;;;13.70;11.07;;;7.80;99.90;;;;;;5062850;28;20224;-54
2022/09/29 00:56:31;;;;;;;13.13;10.37;;;7.70;99.90;;;;;;5072730;28;20228;-54
2022/09/29 00:59:02;;;;;;;11.33;10.13;;;7.70;99.90;;;;;;5073093;28;20679;-54
2022/09/29 01:01:32;;;;;;;13.03;10.60;;;7.70;99.90;;;;;;5072390;28;20242;-54
2022/09/29 01:04:03;;;;;;;13.37;11.03;;;7.80;99.90;;;;;;5063437;28;20230;-55
2022/09/29 01:06:36;;;;;;;13.17;10.67;;;7.70;99.90;;;;;;5067624;28;20230;-55
2022/09/29 01:09:06;;;;;;;11.77;10.13;;;7.70;99.90;;;;;;5072767;28;20235;-55
2022/09/29 01:11:35;;;;;;;14.07;11.33;;;7.70;99.90;;;;;;5071982;28;20244;-52
2022/09/29 01:14:07;;;;;;;12.57;10.63;;;7.60;99.90;;;;;;5063074;28;20227;-54
2022/09/29 01:16:38;;;;;;;12.67;10.37;;;7.60;99.90;;;;;;5072462;28;20621;-55
2022/09/29 01:19:09;;;;;;;11.77;10.10;;;7.60;99.90;;;;;;5072467;28;20245;-54
2022/09/29 01:21:50;;;;;;;12.60;10.80;;;7.60;99.90;;;;;;5071500;28;20215;-55
2022/09/29 01:24:58;;;;;;;13.57;10.30;;;7.60;99.90;;;;;;5071500;28;20222;-54
2022/09/29 01:27:52;;;;;;;11.47;10.23;;;7.50;99.90;;;;;;5066375;28;20223;-54
2022/09/29 01:30:21;;;;;;;13.67;11.33;;;7.50;99.90;;;;;;5072006;28;20227;-55
2022/09/29 01:33:03;;;;;;;12.83;10.60;;;7.50;99.90;;;;;;5062091;28;20219;-54
2022/09/29 01:35:40;;;;;;;12.73;9.97;;;7.50;99.90;;;;;;5071905;28;20629;-54
2022/09/29 01:38:22;;;;;;;12.17;10.33;;;7.50;99.90;;;;;;5072369;28;20227;-54
2022/09/29 01:41:00;;;;;;;14.63;11.53;;;7.50;99.90;;;;;;5078243;28;20578;-55
2022/09/29 01:43:33;;;;;;;12.27;10.77;;;7.40;99.90;;;;;;5062119;28;20219;-54
2022/09/29 01:46:04;;;;;;;11.53;9.90;;;7.50;99.90;;;;;;5072222;28;20223;-55
2022/09/29 01:48:38;;;;;;;12.57;9.90;;;7.40;99.90;;;;;;5071493;28;20272;-55
2022/09/29 01:51:13;;;;;;;12.87;10.73;;;7.40;99.90;;;;;;5071721;28;20253;-54
2022/09/29 01:53:45;;;;;;;12.20;10.43;;;7.40;99.90;;;;;;5067301;28;20276;-55
2022/09/29 01:56:20;;;;;;;12.37;10.33;;;7.40;99.90;;;;;;5060157;28;20223;-55
2022/09/29 01:58:54;;;;;;;13.20;10.90;;;7.40;99.90;;;;;;5075739;28;20234;-54
2022/09/29 02:01:28;;;;;;;11.63;9.70;;;7.40;99.90;;;;;;5070073;28;20278;-54
2022/09/29 02:04:02;;;;;;;13.67;11.50;;;7.40;99.90;;;;;;5070874;28;20223;-54
2022/09/29 02:06:36;;;;;;;12.87;11.17;;;7.30;99.90;;;;;;5075377;28;20229;-55
2022/09/29 02:09:09;;;;;;;11.83;10.47;;;7.30;99.90;;;;;;5075773;28;20690;-54
2022/09/29 02:11:41;;;;;;;11.60;10.23;;;7.40;99.90;;;;;;5075437;28;20783;-55
2022/09/29 02:14:15;;;;;;;10.63;9.53;;;7.30;99.90;;;;;;5067094;28;20563;-54
2022/09/29 02:16:47;;;;;;;12.03;10.27;;;7.30;99.90;;;;;;5074929;28;20751;-54
2022/09/29 02:19:19;;;;;;;11.00;9.90;;;7.30;99.90;;;;;;5068150;28;20231;-55
2022/09/29 02:21:47;;;;;;;12.23;9.60;;;7.30;99.90;;;;;;5070037;28;20235;-54
2022/09/29 02:24:16;;;;;;;10.90;9.77;;;7.20;99.90;;;;;;5068777;28;20219;-53
2022/09/29 02:26:44;;;;;;;10.90;9.63;;;7.20;99.90;;;;;;5074616;28;20257;-54
2022/09/29 02:29:13;;;;;;;12.90;10.13;;;7.20;99.90;;;;;;5075323;28;20228;-53
2022/09/29 02:31:41;;;;;;;11.27;9.77;;;7.20;99.90;;;;;;5073558;28;20235;-54
2022/09/29 02:34:13;;;;;;;10.50;9.30;;;7.20;99.90;;;;;;5066397;28;20238;-53
2022/09/29 02:36:51;;;;;;;11.53;10.03;;;7.20;99.90;;;;;;5074763;28;20227;-54
2022/09/29 02:39:33;;;;;;;12.93;9.53;;;7.20;99.90;;;;;;5070782;28;20226;-54
2022/09/29 02:42:07;;;;;;;13.87;9.47;;;7.20;99.90;;;;;;5072436;28;20240;-54
2022/09/29 02:44:52;;;;;;;11.63;9.37;;;7.20;99.90;;;;;;5070406;28;20613;-54
2022/09/29 02:47:34;;;;;;;11.27;9.60;;;7.10;99.90;;;;;;5071369;28;20223;-55
2022/09/29 02:50:31;;;;;;;11.77;9.27;;;7.10;99.90;;;;;;5074677;28;20227;-53
2022/09/29 02:53:08;;;;;;;11.13;9.23;;;7.10;99.90;;;;;;5075517;28;20237;-54
2022/09/29 02:55:44;;;;;;;11.97;9.97;;;7.10;99.90;;;;;;5074225;28;20227;-54
2022/09/29 02:58:18;;;;;;;10.13;9.03;;;7.10;99.90;;;;;;5066912;28;20579;-54
2022/09/29 03:00:47;;;;;;;11.10;9.90;;;7.00;99.90;;;;;;5074430;28;20243;-53
2022/09/29 03:03:15;;;;;;;12.87;9.67;;;7.00;99.90;;;;;;5064745;28;20269;-54
2022/09/29 03:05:44;;;;;;;12.67;10.70;;;7.10;99.90;;;;;;5072844;28;20219;-53
2022/09/29 03:08:13;;;;;;;11.20;9.43;;;7.10;99.90;;;;;;5074610;28;20219;-54
2022/09/29 03:10:41;;;;;;;12.27;9.60;;;7.00;99.90;;;;;;5080642;28;20235;-54
2022/09/29 03:13:09;;;;;;;12.80;10.57;;;7.00;99.90;;;;;;5057972;28;20250;-52
2022/09/29 03:15:37;;;;;;;10.33;9.03;;;7.00;99.90;;;;;;5074131;28;20231;-53
2022/09/29 03:18:06;;;;;;;12.10;9.80;;;7.00;99.90;;;;;;5073914;28;20250;-54
2022/09/29 03:20:37;;;;;;;11.93;9.67;;;7.00;99.90;;;;;;5074151;28;20314;-54
2022/09/29 03:23:05;;;;;;;11.27;9.00;;;7.00;99.90;;;;;;5064856;28;20250;-53
2022/09/29 03:25:35;;;;;;;10.97;9.63;;;6.90;99.90;;;;;;5074356;28;20229;-53
2022/09/29 03:28:03;;;;;;;10.87;9.63;;;7.00;99.90;;;;;;5073790;28;20227;-53
2022/09/29 03:30:31;;;;;;;10.87;9.60;;;6.90;99.90;;;;;;5074036;28;20243;-51
2022/09/29 03:32:59;;;;;;;12.30;10.17;;;6.90;99.90;;;;;;5063977;28;20679;-53
2022/09/29 03:35:27;;;;;;;10.73;9.63;;;6.90;99.90;;;;;;5073866;28;20219;-54
2022/09/29 03:37:58;;;;;;;12.37;10.30;;;6.90;99.90;;;;;;5073722;28;20583;-53
2022/09/29 03:40:27;;;;;;;13.90;10.43;;;6.90;99.90;;;;;;5079488;28;20222;-52
2022/09/29 03:42:56;;;;;;;9.93;8.93;;;6.90;99.90;;;;;;5065286;28;20741;-53
2022/09/29 03:45:24;;;;;;;10.93;9.33;;;6.90;99.90;;;;;;5072900;28;20223;-53
2022/09/29 03:47:52;;;;;;;11.50;9.43;;;6.80;99.90;;;;;;5073485;28;20686;-54
2022/09/29 03:50:20;;;;;;;12.57;9.87;;;6.80;99.90;;;;;;5074042;28;20227;-54
2022/09/29 03:52:48;;;;;;;11.30;10.10;;;6.80;99.90;;;;;;5070105;28;20224;-54
2022/09/29 03:55:16;;;;;;;10.17;9.00;;;6.80;99.90;;;;;;5073802;28;20272;-54
2022/09/29 03:57:46;;;;;;;12.63;9.70;;;6.80;99.90;;;;;;5073336;28;20223;-54
2022/09/29 04:00:16;;;;;;;13.23;9.90;;;6.80;99.90;;;;;;5073187;28;20227;-54
2022/09/29 04:02:44;;;;;;;11.10;9.90;;;6.80;99.90;;;;;;5064862;28;20228;-54
2022/09/29 04:05:12;;;;;;;11.10;9.63;;;6.80;99.90;;;;;;5073312;28;20281;-53
2022/09/29 04:07:40;;;;;;;14.27;9.87;;;6.80;99.90;;;;;;5072912;28;20242;-53
2022/09/29 04:10:09;;;;;;;12.33;10.03;;;6.80;99.90;;;;;;5079118;28;20223;-54
2022/09/29 04:12:37;;;;;;;13.40;10.73;;;6.80;99.90;;;;;;5063820;28;20239;-53
2022/09/29 04:15:06;;;;;;;12.83;11.43;;;6.80;99.90;;;;;;5072679;28;20223;-53
2022/09/29 04:17:35;;;;;;;11.80;10.40;;;6.80;99.90;;;;;;5072032;28;20686;-54
2022/09/29 04:20:03;;;;;;;15.13;11.07;;;6.80;99.90;;;;;;5073436;28;20238;-54
2022/09/29 04:22:31;;;;;;;12.67;11.37;;;6.80;99.90;;;;;;5064442;28;20256;-54
2022/09/29 04:24:59;;;;;;;16.10;11.70;;;6.80;99.90;;;;;;5071320;28;20215;-54
2022/09/29 04:27:27;;;;;;;16.20;12.00;;;6.80;99.90;;;;;;5072181;28;20215;-54
2022/09/29 04:29:55;;;;;;;13.87;11.23;;;6.90;99.90;;;;;;5072905;28;20273;-54
2022/09/29 04:32:24;;;;;;;15.63;13.03;;;6.90;99.90;;;;;;5065059;28;20580;-54
2022/09/29 04:34:53;;;;;;;15.10;11.87;;;6.90;99.90;;;;;;5070350;28;20678;-53
2022/09/29 04:37:21;;;;;;;15.30;12.07;;;7.00;99.90;;;;;;5072018;28;20222;-53
2022/09/29 04:39:49;;;;;;;15.37;12.37;;;7.00;99.90;;;;;;5072719;28;20227;-54
2022/09/29 04:42:17;;;;;;;16.03;12.77;;;7.00;99.90;;;;;;5068818;28;20227;-54
2022/09/29 04:44:46;;;;;;;17.07;12.83;;;7.00;99.90;;;;;;5072479;28;20223;-53
2022/09/29 04:47:14;;;;;;;18.43;14.10;;;7.00;99.90;;;;;;5072361;28;20223;-54
2022/09/29 04:49:42;;;;;;;16.63;13.67;;;7.00;99.90;;;;;;5072482;28;20211;-54
2022/09/29 04:52:13;;;;;;;14.97;12.53;;;6.90;99.90;;;;;;5052160;28;20215;-54
2022/09/29 04:54:41;;;;;;;14.87;13.03;;;7.00;99.90;;;;;;5068448;28;20231;-54
2022/09/29 04:57:10;;;;;;;15.47;12.77;;;6.90;99.90;;;;;;5056923;28;20227;-54
2022/09/29 04:59:38;;;;;;;16.60;13.57;;;7.00;99.90;;;;;;5072279;28;20235;-53
2022/09/29 05:02:06;;;;;;;14.63;12.80;;;6.90;99.90;;;;;;5068329;28;20726;-53
2022/09/29 05:04:34;;;;;;;15.80;12.77;;;7.00;99.90;;;;;;5072602;28;20307;-53
2022/09/29 05:07:02;;;;;;;15.50;12.63;;;7.00;99.90;;;;;;5072801;28;20594;-54
2022/09/29 05:09:32;;;;;;;14.93;13.03;;;7.00;99.90;;;;;;5076240;28;20234;-54
2022/09/29 05:12:01;;;;;;;14.97;12.00;;;7.00;99.90;;;;;;5069331;28;20747;-53
2022/09/29 05:14:29;;;;;;;16.23;13.20;;;7.00;99.90;;;;;;5070678;28;20223;-53
2022/09/29 05:16:58;;;;;;;17.50;12.23;;;7.00;99.90;;;;;;5071181;28;20249;-54
2022/09/29 05:19:26;;;;;;;15.57;13.07;;;7.00;99.90;;;;;;5071832;28;20227;-54
2022/09/29 05:21:54;;;;;;;16.13;12.90;;;7.00;99.90;;;;;;5069114;28;20327;-53
2022/09/29 05:24:22;;;;;;;13.80;12.20;;;7.00;99.90;;;;;;5070660;28;20680;-53
2022/09/29 05:26:51;;;;;;;14.73;12.07;;;7.00;99.90;;;;;;5070003;28;20560;-53
2022/09/29 05:29:25;;;;;;;15.73;12.47;;;7.00;99.90;;;;;;5071052;28;20226;-50
2022/09/29 05:31:53;;;;;;;18.33;12.30;;;7.10;99.90;;;;;;5070974;28;20602;-53
2022/09/29 05:34:21;;;;;;;16.23;12.40;;;7.10;99.90;;;;;;5074915;28;20253;-53
2022/09/29 05:36:49;;;;;;;15.37;13.17;;;7.20;99.90;;;;;;5076582;28;20557;-54
2022/09/29 05:39:19;;;;;;;15.20;13.10;;;7.10;99.90;;;;;;5075780;28;20219;-53
2022/09/29 05:41:49;;;;;;;14.53;12.67;;;7.10;99.90;;;;;;5071973;28;20247;-54
2022/09/29 05:44:18;;;;;;;15.60;12.93;;;7.10;99.90;;;;;;5068649;28;20219;-54
2022/09/29 05:46:47;;;;;;;15.73;11.60;;;7.10;99.90;;;;;;5076095;28;20718;-54
2022/09/29 05:49:17;;;;;;;13.40;12.00;;;7.10;99.90;;;;;;5075967;28;20227;-54
2022/09/29 05:51:45;;;;;;;17.07;12.80;;;7.10;99.90;;;;;;5074592;28;20234;-53
2022/09/29 05:54:13;;;;;;;14.43;12.67;;;7.20;99.90;;;;;;5073439;28;20235;-53
2022/09/29 05:56:41;;;;;;;16.43;13.20;;;7.10;99.90;;;;;;5075786;28;20224;-54
2022/09/29 05:59:12;;;;;;;14.80;12.87;;;7.20;99.90;;;;;;5075668;28;20231;-53
2022/09/29 06:01:42;;;;;;;13.87;12.43;;;7.20;99.90;;;;;;5073986;28;20714;-52
2022/09/29 06:04:10;;;;;;;14.27;12.37;;;7.20;99.90;;;;;;5072490;28;20235;-54
2022/09/29 06:06:39;;;;;;;14.17;11.80;;;7.20;99.90;;;;;;5073815;28;20230;-52
2022/09/29 06:09:07;;;;;;;15.43;12.03;;;7.20;99.90;;;;;;5073601;28;20227;-52
2022/09/29 06:11:35;;;;;;;14.53;12.00;;;7.30;99.90;;;;;;5074784;28;20235;-50
2022/09/29 06:14:03;;;;;;;16.80;13.13;;;7.30;99.90;;;;;;5069763;28;20220;-52
2022/09/29 06:16:32;;;;;;;14.67;12.67;;;7.40;99.90;;;;;;5075003;28;20590;-51
2022/09/29 06:19:02;;;;;;;14.90;12.83;;;7.40;99.90;;;;;;5069445;28;20227;-52
2022/09/29 06:21:32;;;;;;;14.20;12.70;;;7.40;99.90;;;;;;5075233;28;20238;-50
2022/09/29 06:24:01;;;;;;;15.83;13.80;;;7.40;99.90;;;;;;5070996;28;20690;-54
2022/09/29 06:26:30;;;;;;;16.73;13.93;;;7.50;99.90;;;;;;5075425;28;20234;-52
2022/09/29 06:28:58;;;;;;;17.47;14.20;;;7.50;99.90;;;;;;5075218;28;20235;-51
2022/09/29 06:31:28;;;;;;;17.37;13.93;;;7.60;99.90;;;;;;5074850;28;20360;-53
2022/09/29 06:33:58;;;;;;;17.83;14.40;;;7.60;99.90;;;;;;5070801;28;20736;-50
2022/09/29 06:39:17;;;;;;;17.00;14.33;;;7.60;99.90;;;;;;5067692;28;20227;-52
2022/09/29 06:41:47;;;;;;;17.97;13.90;;;7.70;99.90;;;;;;5072151;28;20317;-50
2022/09/29 06:44:15;;;;;;;18.37;15.23;;;7.70;99.90;;;;;;5068022;28;20243;-51
2022/09/29 06:46:43;;;;;;;18.20;14.17;;;7.70;99.90;;;;;;5075380;28;20844;-52
2022/09/29 06:49:12;;;;;;;17.83;14.83;;;7.70;99.90;;;;;;5062380;28;20227;-53
2022/09/29 06:51:42;;;;;;;18.33;15.40;;;7.80;99.90;;;;;;5071941;28;20227;-51
2022/09/29 06:54:14;;;;;;;19.30;14.73;;;7.80;99.90;;;;;;5067116;28;20742;-50
2022/09/29 06:56:42;;;;;;;19.80;15.30;;;7.90;99.90;;;;;;5068303;28;20222;-53
2022/09/29 06:59:10;;;;;;;18.97;14.97;;;8.00;99.90;;;;;;5068535;28;20246;-53
2022/09/29 07:01:39;;;;;;;17.40;15.07;;;8.00;99.90;;;;;;5067507;28;20235;-52
2022/09/29 07:04:07;;;;;;;17.23;14.13;;;8.00;99.90;;;;;;5066950;28;20223;-51
2022/09/29 07:06:35;;;;;;;20.33;15.33;;;8.10;99.90;;;;;;5069538;28;20232;-50
2022/09/29 07:09:05;;;;;;;18.63;14.97;;;8.10;99.90;;;;;;5069094;28;20239;-51
2022/09/29 07:11:33;;;;;;;18.77;15.60;;;8.20;99.90;;;;;;5068724;28;20742;-51
2022/09/29 07:14:01;;;;;;;18.40;15.53;;;8.20;99.90;;;;;;5067696;28;20231;-52
2022/09/29 07:16:29;;;;;;;17.90;14.63;;;8.20;99.90;;;;;;5070326;28;20234;-50
2022/09/29 07:18:57;;;;;;;19.20;15.77;;;8.30;99.90;;;;;;5069168;28;20686;-52
2022/09/29 07:21:25;;;;;;;17.83;14.67;;;8.40;99.90;;;;;;5069291;28;20239;-51
2022/09/29 07:23:53;;;;;;;16.90;14.70;;;8.40;99.90;;;;;;5066048;28;20310;-50
2022/09/29 07:26:28;;;;;;;17.67;15.17;;;8.40;99.90;;;;;;5069030;28;20238;-52
2022/09/29 07:28:57;;;;;;;16.23;14.53;;;8.50;99.90;;;;;;5068783;28;20235;-53
2022/09/29 07:31:25;;;;;;;15.77;14.10;;;8.50;99.90;;;;;;5068422;28;20591;-50
2022/09/29 07:33:53;;;;;;;17.07;14.63;;;8.60;99.90;;;;;;5067615;28;20559;-49
2022/09/29 07:36:21;;;;;;;16.17;14.47;;;8.60;99.90;;;;;;5068864;28;20239;-49
2022/09/29 07:38:51;;;;;;;16.40;14.17;;;8.70;99.90;;;;;;5068987;28;20231;-51
2022/09/29 07:41:21;;;;;;;16.40;14.67;;;8.70;99.90;;;;;;5069340;28;20228;-52
2022/09/29 07:43:52;;;;;;;17.20;15.40;;;8.80;99.90;;;;;;5067151;28;20613;-52
2022/09/29 07:46:20;;;;;;;17.47;15.67;;;8.90;99.90;;;;;;5068950;28;20224;-50
2022/09/29 07:48:49;;;;;;;15.53;13.93;;;8.90;99.90;;;;;;5067494;28;20751;-52
2022/09/29 07:51:19;;;;;;;15.43;13.83;;;9.00;99.90;;;;;;5068285;28;20227;-52
2022/09/29 07:53:47;;;;;;;15.93;13.70;;;9.00;99.90;;;;;;5064492;28;20220;-51
2022/09/29 07:56:17;;;;;;;18.07;14.83;;;9.10;99.90;;;;;;5068395;28;20683;-51
2022/09/29 07:58:46;;;;;;;16.50;14.80;;;9.00;99.90;;;;;;5068586;28;20227;-50
2022/09/29 08:01:16;;;;;;;17.53;15.73;;;9.10;99.90;;;;;;5066566;28;20227;-52
2022/09/29 08:03:50;;;;;;;16.83;15.13;;;9.10;99.90;;;;;;5066343;28;20321;-53
2022/09/29 08:06:18;;;;;;;16.10;14.53;;;9.20;99.90;;;;;;5068594;28;20293;-54
2022/09/29 08:08:47;;;;;;;16.00;14.40;;;9.20;99.90;;;;;;5068610;28;20235;-52
2022/09/29 08:11:28;;;;;;;14.90;13.40;;;9.30;99.90;;;;;;5067766;28;20289;-52
2022/09/29 08:14:00;;;;;;;16.20;14.60;;;9.40;99.90;;;;;;5066818;28;20215;-52
2022/09/29 08:16:29;;;;;;;15.87;14.30;;;9.40;99.90;;;;;;5067691;28;20263;-53
2022/09/29 08:18:58;;;;;;;16.43;14.83;;;9.40;99.90;;;;;;5068386;28;20219;-51
2022/09/29 08:21:26;;;;;;;18.17;16.27;;;9.40;99.90;;;;;;5067470;28;20231;-53
2022/09/29 08:23:55;;;;;;;16.50;14.87;;;9.50;99.90;;;;;;5065487;28;20227;-52
2022/09/29 08:26:23;;;;;;;17.00;15.30;;;9.60;99.90;;;;;;5066732;28;20223;-52
2022/09/29 08:29:08;;;;;;;17.40;15.70;;;9.60;99.90;;;;;;5068075;28;20690;-52
2022/09/29 08:31:37;;;;;;;17.27;15.57;;;9.70;99.90;;;;;;5066797;28;20280;-52
2022/09/29 08:34:06;;;;;;;16.50;14.80;;;9.80;99.90;;;;;;5066780;28;20571;-53
2022/09/29 08:36:35;;;;;;;17.17;15.43;;;9.80;99.90;;;;;;5066481;28;20582;-53
2022/09/29 08:39:04;;;;;;;18.57;16.53;;;9.90;99.90;;;;;;5068223;28;20227;-52
2022/09/29 08:41:49;;;;;;;17.60;15.90;;;10.00;99.90;;;;;;5067545;28;20273;-53
2022/09/29 08:44:20;;;;;;;18.30;16.47;;;10.00;99.90;;;;;;5065927;28;20236;-53
2022/09/29 08:47:14;;;;;;;17.70;15.90;;;10.10;99.90;;;;;;5067506;28;20700;-53
2022/09/29 08:49:46;;;;;;;17.10;15.40;;;10.20;99.90;;;;;;5067164;28;20224;-52
2022/09/29 08:52:18;;;;;;;17.83;16.07;;;10.40;99.90;;;;;;5063674;28;20234;-54
2022/09/29 08:54:49;;;;;;;17.93;16.23;;;10.50;99.90;;;;;;5066853;28;20219;-54
2022/09/29 08:57:19;;;;;;;16.73;15.17;;;10.50;99.90;;;;;;5067852;28;20294;-52
2022/09/29 08:59:53;;;;;;;18.10;16.30;;;10.70;99.90;;;;;;5067118;28;20231;-53
2022/09/29 09:02:54;;;;;;;16.83;15.23;;;10.70;99.90;;;;;;5064542;28;20735;-53
2022/09/29 09:05:58;;;;;;;19.97;15.80;;;10.80;99.90;;;;;;5062146;28;20235;-51
2022/09/29 09:08:49;;;;;;;15.80;14.23;;;10.90;99.90;;;;;;5066409;28;20235;-53
2022/09/29 09:11:33;;;;;;;15.77;14.27;;;11.00;99.90;;;;;;5064591;28;20251;-53
2022/09/29 09:14:15;;;;;;;15.17;13.77;;;11.20;99.90;;;;;;5063669;28;20254;-55
2022/09/29 09:16:54;;;;;;;14.93;13.53;;;11.40;99.90;;;;;;5066438;28;20787;-50
2022/09/29 09:19:44;;;;;;;14.30;12.93;;;11.70;99.90;;;;;;5067113;28;20221;-49
2022/09/29 09:22:22;;;;;;;12.60;11.43;;;11.90;99.90;;;;;;5064883;28;20243;-52
2022/09/29 09:24:57;;;;;;;12.50;11.40;;;12.10;99.90;;;;;;5067187;28;20237;-53
2022/09/29 09:27:28;;;;;;;11.93;10.80;;;12.20;99.90;;;;;;5065495;28;20235;-53
2022/09/29 09:30:05;;;;;;;12.33;10.63;;;12.30;99.90;;;;;;5065399;28;20623;-53
2022/09/29 09:32:39;;;;;;;12.53;11.27;;;12.40;99.90;;;;;;5061752;28;20281;-53
2022/09/29 09:35:24;;;;;;;12.73;11.43;;;12.50;99.90;;;;;;5067100;28;20743;-52
2022/09/29 09:37:54;;;;;;;10.90;9.80;;;12.50;99.90;;;;;;5067231;28;20265;-51
2022/09/29 09:40:28;;;;;;;10.93;9.93;;;12.50;99.90;;;;;;5067574;28;20233;-52
2022/09/29 09:43:03;;;;;;;11.50;10.30;;;12.40;99.90;;;;;;5063858;28;20463;-53
2022/09/29 09:45:35;;;;;;;9.97;8.97;;;12.30;99.90;;;;;;5066830;28;20237;-52
2022/09/29 09:48:12;;;;;;;10.67;9.60;;;12.30;99.90;;;;;;5067277;28;21090;-53
2022/09/29 09:50:42;;;;;;;11.10;10.10;;;12.30;99.90;;;;;;5065877;28;20221;-52
2022/09/29 09:53:15;;;;;;;10.57;9.67;;;12.30;99.90;;;;;;5063720;28;21688;-52
2022/09/29 09:55:44;;;;;;;10.40;9.40;;;12.40;99.90;;;;;;5066696;28;20234;-52
2022/09/29 09:58:39;;;;;;;9.90;9.03;;;12.40;99.90;;;;;;5067087;28;20234;-52
2022/09/29 10:01:11;;;;;;;10.53;9.53;;;12.40;99.90;;;;;;5057469;28;20242;-50
2022/09/29 10:03:39;;;;;;;10.77;9.67;;;12.50;99.90;;;;;;5064519;28;20574;-51
2022/09/29 10:06:08;;;;;;;9.43;8.53;;;12.50;99.90;;;;;;5066734;28;20235;-51
2022/09/29 10:08:41;;;;;;;9.87;8.90;;;12.60;99.90;;;;;;5067035;28;20716;-52
2022/09/29 10:11:22;;;;;;;10.23;9.23;;;12.60;99.90;;;;;;5066906;28;20697;-48
2022/09/29 10:13:58;;;;;;;10.20;9.10;;;12.50;99.90;;;;;;5064680;28;20221;-53
2022/09/29 10:16:32;;;;;;;10.57;9.47;;;12.50;99.90;;;;;;5068259;28;20238;-53
2022/09/29 10:19:01;;;;;;;9.93;8.80;;;12.60;99.90;;;;;;5069193;28;20230;-51
2022/09/29 10:21:39;;;;;;;9.30;8.33;;;12.60;99.90;;;;;;5069659;28;20229;-52
2022/09/29 10:24:22;;;;;;;9.53;8.63;;;12.60;99.90;;;;;;5064047;28;20275;-49
2022/09/29 10:26:54;;;;;;;9.07;7.80;;;12.70;99.90;;;;;;5069430;28;20313;-53
2022/09/29 10:29:28;;;;;;;8.97;8.17;;;12.70;99.90;;;;;;5069604;28;20230;-51
2022/09/29 10:32:04;;;;;;;8.60;7.70;;;12.70;99.90;;;;;;5066484;28;20245;-53
2022/09/29 10:34:34;;;;;;;8.63;7.67;;;12.70;99.90;;;;;;5070028;28;20272;-53
2022/09/29 10:37:06;;;;;;;8.43;7.73;;;12.70;99.90;;;;;;5070029;28;20303;-51
2022/09/29 10:39:41;;;;;;;8.90;8.00;;;12.70;99.90;;;;;;5068827;28;20280;-52
2022/09/29 10:42:23;;;;;;;8.53;7.73;;;12.70;99.90;;;;;;5064836;28;20247;-52
2022/09/29 10:44:54;;;;;;;8.87;8.07;;;12.70;99.90;;;;;;5068762;28;20234;-52
2022/09/29 10:47:23;;;;;;;9.87;8.70;;;12.70;99.90;;;;;;5067815;28;20240;-49
2022/09/29 10:50:12;;;;;;;9.60;8.60;;;12.60;99.90;;;;;;5069827;28;20226;-51
2022/09/29 10:52:44;;;;;;;9.57;8.57;;;12.70;99.90;;;;;;5063831;28;20234;-53
2022/09/29 10:55:21;;;;;;;8.90;8.07;;;12.70;99.90;;;;;;5069253;28;20236;-53
2022/09/29 10:57:50;;;;;;;9.93;8.67;;;12.60;99.90;;;;;;5069295;28;20229;-53
2022/09/29 11:00:31;;;;;;;9.03;8.13;;;12.60;99.90;;;;;;5067908;28;20230;-52
2022/09/29 11:03:09;;;;;;;8.83;8.03;;;12.60;99.90;;;;;;5064976;28;20242;-51
2022/09/29 11:05:38;;;;;;;9.43;8.43;;;12.70;99.90;;;;;;5068974;28;20231;-52
2022/09/29 11:08:12;;;;;;;10.13;9.10;;;12.70;99.90;;;;;;5069357;28;20234;-52
2022/09/29 11:10:41;;;;;;;9.73;8.73;;;12.70;99.90;;;;;;5068696;28;20628;-52
2022/09/29 11:13:34;;;;;;;9.90;8.90;;;12.60;99.90;;;;;;5063188;28;20241;-52
2022/09/29 11:16:14;;;;;;;9.93;8.93;;;12.70;99.90;;;;;;5068926;28;20235;-52
2022/09/29 11:18:44;;;;;;;10.33;8.93;;;12.80;99.90;;;;;;5069050;28;20241;-52
2022/09/29 11:21:45;;;;;;;10.77;9.67;;;12.90;99.90;;;;;;5067976;28;20230;-53
2022/09/29 11:24:25;;;;;;;11.20;9.57;;;12.90;99.90;;;;;;5066013;28;20235;-52
2022/09/29 11:26:58;;;;;;;10.47;9.37;;;12.90;99.90;;;;;;5068740;28;20230;-51
2022/09/29 11:29:35;;;;;;;10.17;9.07;;;12.90;99.90;;;;;;5068748;28;20744;-51
2022/09/29 11:32:22;;;;;;;10.30;9.30;;;12.90;99.90;;;;;;5065955;28;20357;-52
2022/09/29 11:35:04;;;;;;;11.20;9.30;;;13.00;99.90;;;;;;5068587;28;20230;-53
2022/09/29 11:37:45;;;;;;;10.70;9.27;;;13.00;99.90;;;;;;5069040;28;20586;-53
2022/09/29 11:40:24;;;;;;;12.80;10.57;;;13.10;99.90;;;;;;5069265;28;20694;-53
2022/09/29 11:43:21;;;;;;;17.70;10.63;;;13.20;99.90;;;;;;5066524;28;20683;-49
2022/09/29 11:46:00;;;;;;;14.67;10.57;;;13.20;99.90;;;;;;5068212;28;20230;-52
2022/09/29 11:48:53;;;;;;;12.03;9.50;;;13.20;99.90;;;;;;5068422;28;20288;-52
2022/09/29 11:51:33;;;;;;;10.57;9.47;;;13.20;99.90;;;;;;5066695;28;20322;-52
2022/09/29 11:54:21;;;;;;;11.13;9.77;;;13.20;99.90;;;;;;5066794;28;20586;-52
2022/09/29 11:56:58;;;;;;;10.07;8.97;;;13.30;99.90;;;;;;5068433;28;20237;-52
2022/09/29 11:59:51;;;;;;;11.80;9.27;;;13.20;99.90;;;;;;5068259;28;20231;-51
2022/09/29 12:02:59;;;;;;;12.67;10.07;;;13.20;99.90;;;;;;5064430;28;20233;-53
2022/09/29 12:05:38;;;;;;;11.37;9.70;;;13.20;99.90;;;;;;5067628;28;20238;-52
2022/09/29 12:08:18;;;;;;;11.60;10.17;;;13.20;99.90;;;;;;5067172;28;20226;-51
2022/09/29 12:10:55;;;;;;;11.60;10.40;;;13.20;99.90;;;;;;5068359;28;20242;-52
2022/09/29 12:13:37;;;;;;;10.67;9.13;;;13.20;99.90;;;;;;5061130;28;20245;-52
2022/09/29 12:16:11;;;;;;;10.57;9.30;;;13.30;99.90;;;;;;5068174;28;20272;-52
2022/09/29 12:18:45;;;;;;;9.87;8.87;;;13.40;99.90;;;;;;5066280;28;20230;-52
2022/09/29 12:21:15;;;;;;;11.20;9.03;;;13.60;99.90;;;;;;5067688;28;20231;-53
2022/09/29 12:23:46;;;;;;;9.13;8.20;;;13.60;99.90;;;;;;5061494;28;20315;-52
2022/09/29 12:26:17;;;;;;;9.17;8.30;;;13.70;99.90;;;;;;5067698;28;20295;-52
2022/09/29 12:28:51;;;;;;;9.03;8.13;;;13.60;99.90;;;;;;5067866;28;20234;-53
2022/09/29 12:31:25;;;;;;;9.03;8.10;;;13.60;99.90;;;;;;5067535;28;20248;-53
2022/09/29 12:33:57;;;;;;;10.13;7.97;;;13.60;99.90;;;;;;5060991;28;20230;-52
2022/09/29 12:36:52;;;;;;;7.67;6.87;;;13.60;99.90;;;;;;5066296;28;20716;-52
2022/09/29 12:39:30;;;;;;;7.57;6.77;;;13.70;99.90;;;;;;5065665;28;20230;-52
2022/09/29 12:42:12;;;;;;;7.03;6.33;;;13.70;99.90;;;;;;5063431;28;20320;-52
2022/09/29 12:44:46;;;;;;;6.10;5.50;;;13.60;99.90;;;;;;5066501;28;20237;-53
2022/09/29 12:47:29;;;;;;;5.63;5.10;;;13.60;99.90;;;;;;5067585;28;20246;-51
2022/09/29 12:50:05;;;;;;;5.80;5.30;;;13.60;99.90;;;;;;5067246;28;20252;-53
2022/09/29 12:52:40;;;;;;;5.40;4.90;;;13.60;99.90;;;;;;5061846;28;21200;-52
2022/09/29 12:55:19;;;;;;;6.60;5.40;;;13.60;99.90;;;;;;5068047;28;20701;-52
2022/09/29 12:57:49;;;;;;;5.60;5.10;;;13.50;99.90;;;;;;5072400;28;20273;-52
2022/09/29 13:00:19;;;;;;;6.50;5.10;;;13.50;99.90;;;;;;5072815;28;20250;-53
2022/09/29 13:03:02;;;;;;;6.00;5.40;;;13.40;99.90;;;;;;5062670;28;20238;-53
2022/09/29 13:06:00;;;;;;;4.93;4.53;;;13.40;99.90;;;;;;5072541;28;20232;-53
2022/09/29 13:08:57;;;;;;;5.10;4.70;;;13.40;99.90;;;;;;5059027;28;20698;-52
2022/09/29 13:11:55;;;;;;;5.40;4.87;;;13.40;99.90;;;;;;5077833;28;20758;-53